Time,TemperatureF,DewpointF,PressureIn,WindDirection,WindDirectionDegrees,WindSpeedMPH,WindSpeedGustMPH,Humidity,HourlyPrecipIn,Conditions,Clouds,dailyrainin,SoftwareType,DateUTC
2013-08-20 00:04:00,61.2,50.5,30.11,North,-999,0.0,0.0,68,0.00,,,0.00,pywws,2013-08-20 07:04:00,
2013-08-20 00:09:00,61.2,50.5,30.11,North,-999,0.0,0.0,68,0.00,,,0.00,pywws,2013-08-20 07:09:00,
2013-08-20 00:14:00,61.2,50.9,30.11,SE,135,0.7,1.6,69,0.00,,,0.00,pywws,2013-08-20 07:14:00,
2013-08-20 00:19:00,61.2,50.9,30.11,SE,135,0.7,1.6,69,0.00,,,0.00,pywws,2013-08-20 07:19:00,
2013-08-20 00:24:00,61.3,50.7,30.11,North,-999,0.0,2.2,68,0.00,,,0.00,pywws,2013-08-20 07:24:00,
2013-08-20 00:29:00,62.4,50.5,30.11,North,-999,0.0,0.0,65,0.00,,,0.00,pywws,2013-08-20 07:29:00,
2013-08-20 00:34:00,62.1,50.6,30.11,North,-999,0.0,0.0,66,0.00,,,0.00,pywws,2013-08-20 07:34:00,
2013-08-20 00:39:00,62.1,50.6,30.10,North,-999,0.0,0.0,66,0.00,,,0.00,pywws,2013-08-20 07:39:00,
2013-08-20 01:03:00,60.8,49.0,30.11,SE,135,1.6,2.2,65,0.00,,,0.00,pywws,2013-08-20 08:03:00,
2013-08-20 01:04:00,60.8,49.0,30.11,SE,135,1.6,2.2,65,0.00,,,0.00,pywws,2013-08-20 08:04:00,
2013-08-20 01:09:00,61.2,49.3,30.11,SE,135,2.2,6.0,65,0.00,,,0.00,pywws,2013-08-20 08:09:00,
2013-08-20 01:14:00,61.2,49.3,30.11,SE,135,2.2,6.0,65,0.00,,,0.00,pywws,2013-08-20 08:14:00,
2013-08-20 01:19:00,61.7,49.4,30.11,North,-999,0.0,0.0,64,0.00,,,0.00,pywws,2013-08-20 08:19:00,
2013-08-20 01:24:00,61.3,49.5,30.11,North,-999,0.0,0.0,65,0.00,,,0.00,pywws,2013-08-20 08:24:00,
2013-08-20 01:29:00,61.3,49.5,30.11,North,-999,0.0,3.1,65,0.00,,,0.00,pywws,2013-08-20 08:29:00,
2013-08-20 01:34:00,61.3,49.9,30.12,North,-999,0.0,0.0,66,0.00,,,0.00,pywws,2013-08-20 08:34:00,
2013-08-20 01:39:00,61.9,49.6,30.11,SE,135,0.7,1.6,64,0.00,,,0.00,pywws,2013-08-20 08:39:00,
2013-08-20 01:44:00,61.7,49.8,30.11,North,-999,0.0,0.0,65,0.00,,,0.00,pywws,2013-08-20 08:44:00,
2013-08-20 01:49:00,61.7,49.8,30.11,North,-999,0.0,0.0,65,0.00,,,0.00,pywws,2013-08-20 08:49:00,
2013-08-20 01:54:00,61.7,49.8,30.11,North,-999,0.0,0.0,65,0.00,,,0.00,pywws,2013-08-20 08:54:00,
2013-08-20 01:59:00,61.5,49.6,30.11,North,-999,0.0,0.0,65,0.00,,,0.00,pywws,2013-08-20 08:59:00,
2013-08-20 02:04:00,61.7,49.4,30.11,North,-999,0.0,0.0,64,0.00,,,0.00,pywws,2013-08-20 09:04:00,
2013-08-20 02:09:00,61.5,49.6,30.11,North,-999,0.0,0.0,65,0.00,,,0.00,pywws,2013-08-20 09:09:00,
2013-08-20 02:14:00,61.7,49.4,30.11,SE,135,1.6,2.2,64,0.00,,,0.00,pywws,2013-08-20 09:14:00,
2013-08-20 02:19:00,61.5,49.6,30.10,North,-999,0.0,0.0,65,0.00,,,0.00,pywws,2013-08-20 09:19:00,
2013-08-20 02:24:00,61.5,49.6,30.10,SE,135,0.7,2.2,65,0.00,,,0.00,pywws,2013-08-20 09:24:00,
2013-08-20 02:29:00,61.7,49.4,30.10,North,-999,0.0,0.0,64,0.00,,,0.00,pywws,2013-08-20 09:29:00,
2013-08-20 02:34:00,61.5,49.2,30.10,North,-999,0.0,0.0,64,0.00,,,0.00,pywws,2013-08-20 09:34:00,
2013-08-20 02:39:00,61.5,49.6,30.11,SE,135,0.7,1.6,65,0.00,,,0.00,pywws,2013-08-20 09:39:00,
2013-08-20 02:44:00,61.5,49.2,30.11,North,-999,0.0,0.0,64,0.00,,,0.00,pywws,2013-08-20 09:44:00,
2013-08-20 02:49:00,61.3,49.5,30.11,North,-999,0.0,0.0,65,0.00,,,0.00,pywws,2013-08-20 09:49:00,
2013-08-20 03:03:00,62.4,49.2,30.11,SE,135,3.1,5.4,62,0.00,,,0.00,pywws,2013-08-20 10:03:00,
2013-08-20 03:08:00,61.5,48.8,30.11,North,-999,0.0,0.0,63,0.00,,,0.00,pywws,2013-08-20 10:08:00,
2013-08-20 03:13:00,61.3,49.1,30.11,SE,135,0.7,1.6,64,0.00,,,0.00,pywws,2013-08-20 10:13:00,
2013-08-20 03:18:00,61.3,49.1,30.11,SE,135,0.7,1.6,64,0.00,,,0.00,pywws,2013-08-20 10:18:00,
2013-08-20 03:23:00,61.3,49.1,30.11,SE,135,0.7,1.6,64,0.00,,,0.00,pywws,2013-08-20 10:23:00,
2013-08-20 03:28:00,60.8,48.5,30.12,North,-999,0.0,2.2,64,0.00,,,0.00,pywws,2013-08-20 10:28:00,
2013-08-20 03:33:00,61.0,48.3,30.12,SE,135,0.7,2.2,63,0.00,,,0.00,pywws,2013-08-20 10:33:00,
2013-08-20 03:38:00,61.0,48.3,30.11,North,-999,0.0,0.0,63,0.00,,,0.00,pywws,2013-08-20 10:38:00,
2013-08-20 03:43:00,60.8,48.1,30.11,North,-999,0.0,1.6,63,0.00,,,0.00,pywws,2013-08-20 10:43:00,
2013-08-20 03:48:00,60.8,48.5,30.12,North,-999,0.0,1.6,64,0.00,,,0.00,pywws,2013-08-20 10:48:00,
2013-08-20 04:00:00,60.8,48.5,30.11,North,-999,0.0,1.6,64,0.00,,,0.00,pywws,2013-08-20 11:00:00,
2013-08-20 04:04:00,59.7,48.3,30.12,SE,135,0.7,2.2,66,0.00,,,0.00,pywws,2013-08-20 11:04:00,
2013-08-20 04:09:00,59.7,48.3,30.12,SE,135,0.7,2.2,66,0.00,,,0.00,pywws,2013-08-20 11:09:00,
2013-08-20 04:14:00,60.1,48.7,30.12,SE,135,0.7,2.2,66,0.00,,,0.00,pywws,2013-08-20 11:14:00,
2013-08-20 04:19:00,60.3,48.4,30.12,SE,135,1.6,3.1,65,0.00,,,0.00,pywws,2013-08-20 11:19:00,
2013-08-20 04:24:00,60.4,48.6,30.12,SE,135,0.7,1.6,65,0.00,,,0.00,pywws,2013-08-20 11:24:00,
2013-08-20 04:29:00,60.1,48.7,30.12,North,-999,0.0,0.0,66,0.00,,,0.00,pywws,2013-08-20 11:29:00,
2013-08-20 04:34:00,59.9,48.5,30.12,North,-999,0.0,0.0,66,0.00,,,0.00,pywws,2013-08-20 11:34:00,
2013-08-20 04:39:00,59.9,48.5,30.12,North,-999,0.0,0.0,66,0.00,,,0.00,pywws,2013-08-20 11:39:00,
2013-08-20 04:44:00,59.7,48.3,30.12,North,-999,0.0,0.0,66,0.00,,,0.00,pywws,2013-08-20 11:44:00,
2013-08-20 04:49:00,59.7,48.3,30.12,North,-999,0.0,0.0,66,0.00,,,0.00,pywws,2013-08-20 11:49:00,
2013-08-20 04:54:00,59.5,48.2,30.12,North,-999,0.0,0.0,66,0.00,,,0.00,pywws,2013-08-20 11:54:00,
2013-08-20 04:59:00,59.5,48.2,30.13,North,-999,0.0,0.0,66,0.00,,,0.00,pywws,2013-08-20 11:59:00,
2013-08-20 05:19:00,59.5,48.2,30.13,SE,135,1.6,2.2,66,0.00,,,0.00,pywws,2013-08-20 12:19:00,
2013-08-20 05:24:00,59.4,48.4,30.13,North,-999,0.0,0.0,67,0.00,,,0.00,pywws,2013-08-20 12:24:00,
2013-08-20 05:29:00,59.4,48.4,30.13,North,-999,0.0,0.0,67,0.00,,,0.00,pywws,2013-08-20 12:29:00,
2013-08-20 05:34:00,59.2,48.6,30.13,North,-999,0.0,0.0,68,0.00,,,0.00,pywws,2013-08-20 12:34:00,
2013-08-20 05:39:00,58.8,48.7,30.13,North,-999,0.0,0.0,69,0.00,,,0.00,pywws,2013-08-20 12:39:00,
2013-08-20 05:44:00,59.0,48.5,30.13,North,-999,0.0,0.7,68,0.00,,,0.00,pywws,2013-08-20 12:44:00,
2013-08-20 05:49:00,59.2,48.2,30.13,North,-999,0.0,0.0,67,0.00,,,0.00,pywws,2013-08-20 12:49:00,
2013-08-20 05:54:00,59.4,48.4,30.13,North,-999,0.0,0.0,67,0.00,,,0.00,pywws,2013-08-20 12:54:00,
2013-08-20 05:59:00,59.4,48.4,30.13,SE,135,0.7,1.6,67,0.00,,,0.00,pywws,2013-08-20 12:59:00,
2013-08-20 06:04:00,59.4,48.4,30.13,North,-999,0.0,3.1,67,0.00,,,0.00,pywws,2013-08-20 13:04:00,
2013-08-20 06:09:00,59.0,48.1,30.13,SE,135,0.7,2.2,67,0.00,,,0.00,pywws,2013-08-20 13:09:00,
2013-08-20 06:14:00,58.8,48.3,30.14,North,-999,0.0,1.6,68,0.00,,,0.00,pywws,2013-08-20 13:14:00,
2013-08-20 06:19:00,58.8,48.3,30.14,North,-999,0.0,1.6,68,0.00,,,0.00,pywws,2013-08-20 13:19:00,
2013-08-20 06:29:00,58.5,48.3,30.14,SE,135,0.7,2.2,69,0.00,,,0.00,pywws,2013-08-20 13:29:00,
2013-08-20 06:34:00,58.5,48.3,30.14,SE,135,1.6,3.1,69,0.00,,,0.00,pywws,2013-08-20 13:34:00,
2013-08-20 06:39:00,58.5,48.3,30.14,SE,135,1.6,3.1,69,0.00,,,0.00,pywws,2013-08-20 13:39:00,
2013-08-20 06:44:00,58.1,48.4,30.14,North,-999,0.0,2.2,70,0.00,,,0.00,pywws,2013-08-20 13:44:00,
2013-08-20 06:49:00,58.3,48.5,30.14,North,-999,0.0,1.6,70,0.00,,,0.00,pywws,2013-08-20 13:49:00,
2013-08-20 06:54:00,58.3,48.5,30.14,North,-999,0.0,1.6,70,0.00,,,0.00,pywws,2013-08-20 13:54:00,
2013-08-20 07:04:00,58.3,48.5,30.14,SE,135,1.6,3.1,70,0.00,,,0.00,pywws,2013-08-20 14:04:00,
2013-08-20 07:08:00,58.3,48.5,30.14,North,-999,0.0,1.6,70,0.00,,,0.00,pywws,2013-08-20 14:08:00,
2013-08-20 07:13:00,58.3,48.5,30.14,North,-999,0.0,0.0,70,0.00,,,0.00,pywws,2013-08-20 14:13:00,
2013-08-20 07:18:00,57.9,48.6,30.14,North,-999,0.0,1.6,71,0.00,,,0.00,pywws,2013-08-20 14:18:00,
2013-08-20 07:23:00,57.9,48.6,30.14,North,-999,0.0,1.6,71,0.00,,,0.00,pywws,2013-08-20 14:23:00,
2013-08-20 07:28:00,58.1,48.7,30.15,SE,135,1.6,2.2,71,0.00,,,0.00,pywws,2013-08-20 14:28:00,
2013-08-20 07:33:00,58.3,48.9,30.15,SE,135,3.1,4.5,71,0.00,,,0.00,pywws,2013-08-20 14:33:00,
2013-08-20 07:38:00,58.3,49.3,30.15,North,-999,0.0,0.0,72,0.00,,,0.00,pywws,2013-08-20 14:38:00,
2013-08-20 07:43:00,58.3,49.3,30.15,North,-999,0.0,0.0,72,0.00,,,0.00,pywws,2013-08-20 14:43:00,
2013-08-20 08:01:00,58.6,49.3,30.15,North,-999,0.0,0.0,71,0.00,,,0.00,pywws,2013-08-20 15:01:00,
2013-08-20 08:04:00,58.1,49.1,30.15,North,-999,0.0,0.0,72,0.00,,,0.00,pywws,2013-08-20 15:04:00,
2013-08-20 08:09:00,57.9,49.3,30.15,North,-999,0.0,0.0,73,0.00,,,0.00,pywws,2013-08-20 15:09:00,
2013-08-20 08:14:00,58.3,49.7,30.15,North,-999,0.0,0.0,73,0.00,,,0.00,pywws,2013-08-20 15:14:00,
2013-08-20 08:19:00,58.5,49.8,30.15,North,-999,0.0,0.0,73,0.00,,,0.00,pywws,2013-08-20 15:19:00,
2013-08-20 08:24:00,58.3,49.7,30.15,North,-999,0.0,0.0,73,0.00,,,0.00,pywws,2013-08-20 15:24:00,
2013-08-20 08:29:00,58.3,49.7,30.15,North,-999,0.0,0.0,73,0.00,,,0.00,pywws,2013-08-20 15:29:00,
2013-08-20 08:44:00,58.3,50.0,30.15,North,-999,0.0,0.0,74,0.00,,,0.00,pywws,2013-08-20 15:44:00,
2013-08-20 08:49:00,58.3,50.0,30.15,North,-999,0.0,0.0,74,0.00,,,0.00,pywws,2013-08-20 15:49:00,
2013-08-20 08:54:00,58.5,50.2,30.15,North,-999,0.0,0.0,74,0.00,,,0.00,pywws,2013-08-20 15:54:00,
2013-08-20 09:04:00,59.0,50.4,30.15,North,-999,0.0,0.0,73,0.00,,,0.00,pywws,2013-08-20 16:04:00,
2013-08-20 09:09:00,59.4,50.3,30.15,North,-999,0.0,0.0,72,0.00,,,0.00,pywws,2013-08-20 16:09:00,
2013-08-20 09:14:00,59.5,50.1,30.15,SE,135,0.7,1.6,71,0.00,,,0.00,pywws,2013-08-20 16:14:00,
2013-08-20 09:19:00,60.1,50.3,30.15,North,-999,0.0,0.7,70,0.00,,,0.00,pywws,2013-08-20 16:19:00,
2013-08-20 09:24:00,60.1,50.3,30.15,North,-999,0.0,0.0,70,0.00,,,0.00,pywws,2013-08-20 16:24:00,
2013-08-20 09:29:00,60.1,50.3,30.14,North,-999,0.0,0.0,70,0.00,,,0.00,pywws,2013-08-20 16:29:00,
2013-08-20 09:34:00,60.1,50.3,30.14,North,-999,0.0,0.0,70,0.00,,,0.00,pywws,2013-08-20 16:34:00,
2013-08-20 09:39:00,60.6,50.4,30.15,North,-999,0.0,0.0,69,0.00,,,0.00,pywws,2013-08-20 16:39:00,
2013-08-20 09:44:00,60.8,50.2,30.15,North,-999,0.0,0.0,68,0.00,,,0.00,pywws,2013-08-20 16:44:00,
2013-08-20 09:49:00,61.0,50.3,30.15,North,-999,0.0,0.0,68,0.00,,,0.00,pywws,2013-08-20 16:49:00,
2013-08-20 09:54:00,61.3,50.7,30.15,North,-999,0.0,0.0,68,0.00,,,0.00,pywws,2013-08-20 16:54:00,
2013-08-20 10:04:00,61.3,50.3,30.15,North,-999,0.0,0.7,67,0.00,,,0.00,pywws,2013-08-20 17:04:00,
2013-08-20 10:09:00,62.1,51.0,30.14,North,-999,0.0,0.0,67,0.00,,,0.00,pywws,2013-08-20 17:09:00,
2013-08-20 10:14:00,63.7,51.7,30.14,SE,135,1.6,2.2,65,0.00,,,0.00,pywws,2013-08-20 17:14:00,
2013-08-20 10:19:00,63.3,51.3,30.14,SE,135,2.2,3.1,65,0.00,,,0.00,pywws,2013-08-20 17:19:00,
2013-08-20 10:24:00,63.1,51.2,30.15,SE,135,1.6,2.2,65,0.00,,,0.00,pywws,2013-08-20 17:24:00,
2013-08-20 10:29:00,63.9,51.4,30.15,SE,135,1.6,3.1,64,0.00,,,0.00,pywws,2013-08-20 17:29:00,
2013-08-20 10:34:00,64.2,51.8,30.15,SE,135,1.6,2.2,64,0.00,,,0.00,pywws,2013-08-20 17:34:00,
2013-08-20 10:39:00,64.2,51.8,30.15,SE,135,1.6,2.2,64,0.00,,,0.00,pywws,2013-08-20 17:39:00,
2013-08-20 11:24:00,65.8,53.7,30.14,SE,135,0.7,2.2,65,0.00,,,0.00,pywws,2013-08-20 18:24:00,
2013-08-20 11:29:00,65.8,53.7,30.14,SE,135,0.7,2.2,65,0.00,,,0.00,pywws,2013-08-20 18:29:00,
2013-08-20 11:39:00,66.6,54.0,30.14,SE,135,0.7,0.7,64,0.00,,,0.00,pywws,2013-08-20 18:39:00,
2013-08-20 11:44:00,66.6,54.0,30.13,SE,135,0.7,0.7,64,0.00,,,0.00,pywws,2013-08-20 18:44:00,
2013-08-20 11:49:00,67.3,54.2,30.13,SE,135,2.2,3.8,63,0.00,,,0.00,pywws,2013-08-20 18:49:00,
2013-08-20 12:03:00,66.9,54.3,30.13,SE,135,2.2,3.8,64,0.00,,,0.00,pywws,2013-08-20 19:03:00,
2013-08-20 12:13:00,68.7,55.2,30.13,SE,135,3.1,4.5,62,0.00,,,0.00,pywws,2013-08-20 19:13:00,
2013-08-20 12:18:00,69.8,55.7,30.13,North,-999,0.0,0.7,61,0.00,,,0.00,pywws,2013-08-20 19:18:00,
2013-08-20 12:23:00,70.2,55.6,30.12,SE,135,1.6,2.2,60,0.00,,,0.00,pywws,2013-08-20 19:23:00,
2013-08-20 12:28:00,70.2,54.7,30.12,SE,135,0.7,1.6,58,0.00,,,0.00,pywws,2013-08-20 19:28:00,
2013-08-20 12:33:00,70.2,54.7,30.12,SE,135,2.2,3.8,58,0.00,,,0.00,pywws,2013-08-20 19:33:00,
2013-08-20 12:38:00,69.1,54.6,30.12,SE,135,0.7,1.6,60,0.00,,,0.00,pywws,2013-08-20 19:38:00,
2013-08-20 12:43:00,69.3,54.8,30.12,SE,135,0.7,2.2,60,0.00,,,0.00,pywws,2013-08-20 19:43:00,
2013-08-20 12:48:00,70.5,55.0,30.12,SE,135,1.6,3.1,58,0.00,,,0.00,pywws,2013-08-20 19:48:00,
2013-08-20 13:00:00,71.1,55.5,30.12,SE,135,1.6,3.1,58,0.00,,,0.00,pywws,2013-08-20 20:00:00,
2013-08-20 13:03:00,70.9,54.9,30.11,SE,135,1.6,2.2,57,0.00,,,0.00,pywws,2013-08-20 20:03:00,
2013-08-20 13:08:00,72.5,55.9,30.11,North,-999,0.0,0.0,56,0.00,,,0.00,pywws,2013-08-20 20:08:00,
2013-08-20 13:13:00,72.9,55.2,30.11,SE,135,1.6,2.2,54,0.00,,,0.00,pywws,2013-08-20 20:13:00,
2013-08-20 13:18:00,74.3,56.6,30.12,North,-999,0.0,0.0,54,0.00,,,0.00,pywws,2013-08-20 20:18:00,
2013-08-20 13:23:00,72.0,55.4,30.11,North,-999,0.0,1.6,56,0.00,,,0.00,pywws,2013-08-20 20:23:00,
2013-08-20 13:28:00,73.8,56.1,30.11,SE,135,0.7,1.6,54,0.00,,,0.00,pywws,2013-08-20 20:28:00,
2013-08-20 13:33:00,73.4,55.2,30.11,SE,135,0.7,2.2,53,0.00,,,0.00,pywws,2013-08-20 20:33:00,
2013-08-20 13:38:00,74.5,56.2,30.11,SE,135,0.7,2.2,53,0.00,,,0.00,pywws,2013-08-20 20:38:00,
2013-08-20 13:43:00,73.2,55.0,30.11,SE,135,2.2,3.8,53,0.00,,,0.00,pywws,2013-08-20 20:43:00,
2013-08-20 13:48:00,74.8,56.0,30.11,SE,135,4.5,6.0,52,0.00,,,0.00,pywws,2013-08-20 20:48:00,
2013-08-20 14:00:00,73.6,54.9,30.11,SE,135,0.7,1.6,52,0.00,,,0.00,pywws,2013-08-20 21:00:00,
2013-08-20 14:04:00,74.3,54.4,30.11,SE,135,0.7,1.6,50,0.00,,,0.00,pywws,2013-08-20 21:04:00,
2013-08-20 14:09:00,74.3,55.0,30.10,SE,135,2.2,3.1,51,0.00,,,0.00,pywws,2013-08-20 21:09:00,
2013-08-20 14:14:00,76.1,56.6,30.10,SE,135,3.1,4.5,51,0.00,,,0.00,pywws,2013-08-20 21:14:00,
2013-08-20 14:19:00,76.6,56.6,30.10,North,-999,0.0,0.0,50,0.00,,,0.00,pywws,2013-08-20 21:19:00,
2013-08-20 14:24:00,75.4,54.9,30.10,SE,135,1.6,3.1,49,0.00,,,0.00,pywws,2013-08-20 21:24:00,
2013-08-20 14:29:00,73.9,54.1,30.10,SE,135,3.1,3.8,50,0.00,,,0.00,pywws,2013-08-20 21:29:00,
2013-08-20 14:34:00,75.6,56.7,30.10,North,-999,0.0,0.0,52,0.00,,,0.00,pywws,2013-08-20 21:34:00,
2013-08-20 14:39:00,73.9,55.2,30.10,SE,135,0.7,1.6,52,0.00,,,0.00,pywws,2013-08-20 21:39:00,
2013-08-20 14:44:00,73.9,54.7,30.10,SE,135,1.6,3.1,51,0.00,,,0.00,pywws,2013-08-20 21:44:00,
2013-08-20 14:49:00,74.5,54.6,30.10,SE,135,2.2,3.1,50,0.00,,,0.00,pywws,2013-08-20 21:49:00,
2013-08-20 15:01:00,74.1,54.8,30.10,SE,135,1.6,2.2,51,0.00,,,0.00,pywws,2013-08-20 22:01:00,
2013-08-20 15:03:00,73.9,54.7,30.10,SE,135,1.6,3.1,51,0.00,,,0.00,pywws,2013-08-20 22:03:00,
2013-08-20 15:08:00,74.7,55.9,30.10,SE,135,0.7,1.6,52,0.00,,,0.00,pywws,2013-08-20 22:08:00,
2013-08-20 15:13:00,74.3,55.5,30.09,SE,135,2.2,5.4,52,0.00,,,0.00,pywws,2013-08-20 22:13:00,
2013-08-20 15:18:00,75.0,56.2,30.09,SE,135,2.2,4.5,52,0.00,,,0.00,pywws,2013-08-20 22:18:00,
2013-08-20 15:23:00,74.7,55.3,30.09,SE,135,0.7,2.2,51,0.00,,,0.00,pywws,2013-08-20 22:23:00,
2013-08-20 15:28:00,74.7,55.3,30.09,SE,135,1.6,2.2,51,0.00,,,0.00,pywws,2013-08-20 22:28:00,
2013-08-20 15:33:00,75.2,55.3,30.09,SE,135,2.2,3.1,50,0.00,,,0.00,pywws,2013-08-20 22:33:00,
2013-08-20 15:38:00,75.0,56.2,30.09,SE,135,1.6,2.2,52,0.00,,,0.00,pywws,2013-08-20 22:38:00,
2013-08-20 15:43:00,74.5,54.6,30.09,SE,135,3.1,3.8,50,0.00,,,0.00,pywws,2013-08-20 22:43:00,
2013-08-20 15:48:00,74.7,55.9,30.09,North,-999,0.0,0.7,52,0.00,,,0.00,pywws,2013-08-20 22:48:00,
2013-08-20 15:53:00,75.6,55.0,30.08,North,-999,0.0,2.2,49,0.00,,,0.00,pywws,2013-08-20 22:53:00,
2013-08-20 15:58:00,75.0,55.1,30.09,SE,135,3.1,3.8,50,0.00,,,0.00,pywws,2013-08-20 22:58:00,
2013-08-20 16:04:00,75.6,55.6,30.08,SE,135,0.7,1.6,50,0.00,,,0.00,pywws,2013-08-20 23:04:00,
2013-08-20 16:09:00,75.6,55.0,30.08,SE,135,3.8,5.4,49,0.00,,,0.00,pywws,2013-08-20 23:09:00,
2013-08-20 16:14:00,75.4,54.9,30.08,North,-999,0.0,0.0,49,0.00,,,0.00,pywws,2013-08-20 23:14:00,
2013-08-20 16:19:00,75.6,55.0,30.08,SE,135,0.7,2.2,49,0.00,,,0.00,pywws,2013-08-20 23:19:00,
2013-08-20 16:24:00,75.7,56.3,30.08,SE,135,0.7,1.6,51,0.00,,,0.00,pywws,2013-08-20 23:24:00,
2013-08-20 16:29:00,75.6,55.0,30.08,SE,135,3.1,4.5,49,0.00,,,0.00,pywws,2013-08-20 23:29:00,
2013-08-20 16:34:00,75.0,55.6,30.08,SE,135,0.7,2.2,51,0.00,,,0.00,pywws,2013-08-20 23:34:00,
2013-08-20 16:39:00,75.0,55.6,30.08,SE,135,0.7,2.2,51,0.00,,,0.00,pywws,2013-08-20 23:39:00,
2013-08-20 16:44:00,75.4,54.9,30.08,SE,135,2.2,3.8,49,0.00,,,0.00,pywws,2013-08-20 23:44:00,
2013-08-20 16:49:00,75.4,55.4,30.07,SE,135,0.7,2.2,50,0.00,,,0.00,pywws,2013-08-20 23:49:00,
2013-08-20 16:54:00,75.4,54.9,30.07,SE,135,1.6,2.2,49,0.00,,,0.00,pywws,2013-08-20 23:54:00,
2013-08-20 16:59:00,75.0,55.1,30.07,North,-999,0.0,1.6,50,0.00,,,0.00,pywws,2013-08-20 23:59:00,
2013-08-20 17:04:00,74.8,54.9,30.07,SE,135,1.6,3.1,50,0.00,,,0.00,pywws,2013-08-21 00:04:00,
2013-08-20 17:08:00,74.8,54.9,30.07,SE,135,0.7,1.6,50,0.00,,,0.00,pywws,2013-08-21 00:08:00,
2013-08-20 17:13:00,75.6,54.5,30.07,North,-999,0.0,1.6,48,0.00,,,0.00,pywws,2013-08-21 00:13:00,
2013-08-20 17:18:00,75.2,53.6,30.07,SE,135,0.7,2.2,47,0.00,,,0.00,pywws,2013-08-21 00:18:00,
2013-08-20 17:23:00,75.4,53.7,30.06,SE,135,0.7,2.2,47,0.00,,,0.00,pywws,2013-08-21 00:23:00,
2013-08-20 17:28:00,73.9,54.1,30.06,SE,135,1.6,2.2,50,0.00,,,0.00,pywws,2013-08-21 00:28:00,
2013-08-20 17:33:00,73.9,54.1,30.06,SE,135,1.6,2.2,50,0.00,,,0.00,pywws,2013-08-21 00:33:00,
2013-08-20 17:38:00,74.3,54.4,30.06,SE,135,0.7,1.6,50,0.00,,,0.00,pywws,2013-08-21 00:38:00,
2013-08-20 17:43:00,74.3,54.4,30.06,SE,135,0.7,1.6,50,0.00,,,0.00,pywws,2013-08-21 00:43:00,
2013-08-20 17:48:00,74.5,54.6,30.06,North,-999,0.0,0.0,50,0.00,,,0.00,pywws,2013-08-21 00:48:00,
2013-08-20 17:53:00,73.8,53.9,30.06,SE,135,2.2,3.8,50,0.00,,,0.00,pywws,2013-08-21 00:53:00,
2013-08-20 17:58:00,74.1,54.8,30.06,SE,135,0.7,1.6,51,0.00,,,0.00,pywws,2013-08-21 00:58:00,
2013-08-20 18:04:00,74.5,54.6,30.06,SE,135,0.7,1.6,50,0.00,,,0.00,pywws,2013-08-21 01:04:00,
2013-08-20 18:09:00,74.5,54.1,30.06,North,-999,0.0,0.0,49,0.00,,,0.00,pywws,2013-08-21 01:09:00,
2013-08-20 18:14:00,73.9,54.1,30.06,SE,135,0.7,1.6,50,0.00,,,0.00,pywws,2013-08-21 01:14:00,
2013-08-20 18:19:00,74.1,54.3,30.06,North,-999,0.0,1.6,50,0.00,,,0.00,pywws,2013-08-21 01:19:00,
2013-08-20 18:24:00,73.4,53.6,30.06,North,-999,0.0,1.6,50,0.00,,,0.00,pywws,2013-08-21 01:24:00,
2013-08-20 18:29:00,73.4,54.2,30.06,SE,135,0.7,1.6,51,0.00,,,0.00,pywws,2013-08-21 01:29:00,
2013-08-20 18:34:00,72.9,54.2,30.06,SE,135,2.2,4.5,52,0.00,,,0.00,pywws,2013-08-21 01:34:00,
2013-08-20 18:39:00,72.9,54.2,30.06,SE,135,2.2,4.5,52,0.00,,,0.00,pywws,2013-08-21 01:39:00,
2013-08-20 18:44:00,72.3,53.7,30.05,North,-999,0.0,0.7,52,0.00,,,0.00,pywws,2013-08-21 01:44:00,
2013-08-20 18:49:00,71.4,54.4,30.06,North,-999,0.0,0.7,55,0.00,,,0.00,pywws,2013-08-21 01:49:00,
2013-08-20 18:54:00,71.4,54.4,30.05,North,-999,0.0,0.7,55,0.00,,,0.00,pywws,2013-08-21 01:54:00,
2013-08-20 18:59:00,71.6,53.5,30.05,North,-999,0.0,0.0,53,0.00,,,0.00,pywws,2013-08-21 01:59:00,
2013-08-20 19:04:00,71.6,53.0,30.05,SE,135,0.7,1.6,52,0.00,,,0.00,pywws,2013-08-21 02:04:00,
2013-08-20 19:09:00,71.4,53.4,30.05,SE,135,1.6,3.1,53,0.00,,,0.00,pywws,2013-08-21 02:09:00,
2013-08-20 19:14:00,71.1,53.6,30.05,North,-999,0.0,0.0,54,0.00,,,0.00,pywws,2013-08-21 02:14:00,
2013-08-20 19:19:00,71.1,53.6,30.05,North,-999,0.0,0.0,54,0.00,,,0.00,pywws,2013-08-21 02:19:00,
2013-08-20 19:24:00,70.5,53.1,30.05,North,-999,0.0,0.7,54,0.00,,,0.00,pywws,2013-08-21 02:24:00,
2013-08-20 19:29:00,70.2,53.2,30.05,North,-999,0.0,0.0,55,0.00,,,0.00,pywws,2013-08-21 02:29:00,
2013-08-20 19:34:00,69.8,52.9,30.05,North,-999,0.0,0.0,55,0.00,,,0.00,pywws,2013-08-21 02:34:00,
2013-08-20 19:39:00,69.8,52.9,30.05,North,-999,0.0,0.0,55,0.00,,,0.00,pywws,2013-08-21 02:39:00,
2013-08-20 19:44:00,69.8,52.9,30.06,SE,135,0.7,2.2,55,0.00,,,0.00,pywws,2013-08-21 02:44:00,
2013-08-20 19:49:00,69.3,53.4,30.05,North,-999,0.0,0.0,57,0.00,,,0.00,pywws,2013-08-21 02:49:00,
2013-08-20 19:54:00,68.7,53.8,30.06,North,-999,0.0,0.0,59,0.00,,,0.00,pywws,2013-08-21 02:54:00,
2013-08-20 19:59:00,68.9,53.0,30.06,SE,135,0.7,1.6,57,0.00,,,0.00,pywws,2013-08-21 02:59:00,
2013-08-20 20:03:00,68.9,53.0,30.06,SE,135,0.7,1.6,57,0.00,,,0.00,pywws,2013-08-21 03:03:00,
2013-08-20 20:08:00,68.7,52.9,30.06,North,-999,0.0,0.0,57,0.00,,,0.00,pywws,2013-08-21 03:08:00,
2013-08-20 20:13:00,68.4,53.5,30.06,North,-999,0.0,0.0,59,0.00,,,0.00,pywws,2013-08-21 03:13:00,
2013-08-20 20:18:00,68.0,53.1,30.06,North,-999,0.0,0.0,59,0.00,,,0.00,pywws,2013-08-21 03:18:00,
2013-08-20 20:23:00,67.3,53.4,30.06,North,-999,0.0,0.0,61,0.00,,,0.00,pywws,2013-08-21 03:23:00,
2013-08-20 20:28:00,66.6,53.1,30.06,North,-999,0.0,0.0,62,0.00,,,0.00,pywws,2013-08-21 03:28:00,
2013-08-20 20:33:00,66.4,53.0,30.06,North,-999,0.0,0.0,62,0.00,,,0.00,pywws,2013-08-21 03:33:00,
2013-08-20 20:38:00,66.4,53.4,30.07,North,-999,0.0,0.0,63,0.00,,,0.00,pywws,2013-08-21 03:38:00,
2013-08-20 20:43:00,66.0,53.5,30.07,North,-999,0.0,0.0,64,0.00,,,0.00,pywws,2013-08-21 03:43:00,
2013-08-20 20:48:00,66.0,53.5,30.07,North,-999,0.0,0.0,64,0.00,,,0.00,pywws,2013-08-21 03:48:00,
2013-08-20 20:53:00,66.0,53.5,30.07,North,-999,0.0,0.0,64,0.00,,,0.00,pywws,2013-08-21 03:53:00,
2013-08-20 20:58:00,65.8,52.9,30.07,North,-999,0.0,0.0,63,0.00,,,0.00,pywws,2013-08-21 03:58:00,
2013-08-20 21:03:00,65.8,53.3,30.07,North,-999,0.0,0.0,64,0.00,,,0.00,pywws,2013-08-21 04:03:00,
2013-08-20 21:08:00,65.5,53.0,30.07,North,-999,0.0,0.0,64,0.00,,,0.00,pywws,2013-08-21 04:08:00,
2013-08-20 21:13:00,65.1,52.6,30.08,North,-999,0.0,0.0,64,0.00,,,0.00,pywws,2013-08-21 04:13:00,
2013-08-20 21:18:00,64.8,52.3,30.07,North,-999,0.0,0.0,64,0.00,,,0.00,pywws,2013-08-21 04:18:00,
2013-08-20 21:23:00,64.2,51.8,30.07,North,-999,0.0,0.0,64,0.00,,,0.00,pywws,2013-08-21 04:23:00,
2013-08-20 21:28:00,63.9,51.4,30.08,North,-999,0.0,0.0,64,0.00,,,0.00,pywws,2013-08-21 04:28:00,
2013-08-20 21:33:00,63.3,50.9,30.08,North,-999,0.0,0.0,64,0.00,,,0.00,pywws,2013-08-21 04:33:00,
2013-08-20 21:38:00,63.0,51.0,30.08,North,-999,0.0,0.0,65,0.00,,,0.00,pywws,2013-08-21 04:38:00,
2013-08-20 21:43:00,62.6,50.7,30.08,North,-999,0.0,0.0,65,0.00,,,0.00,pywws,2013-08-21 04:43:00,
2013-08-20 21:48:00,62.2,51.1,30.07,North,-999,0.0,0.0,67,0.00,,,0.00,pywws,2013-08-21 04:48:00,
2013-08-20 21:53:00,62.1,51.0,30.08,North,-999,0.0,0.0,67,0.00,,,0.00,pywws,2013-08-21 04:53:00,
2013-08-20 21:58:00,62.1,51.0,30.07,North,-999,0.0,0.0,67,0.00,,,0.00,pywws,2013-08-21 04:58:00,
2013-08-20 22:03:00,61.7,50.6,30.07,North,-999,0.0,0.0,67,0.00,,,0.00,pywws,2013-08-21 05:03:00,
2013-08-20 22:08:00,61.5,50.9,30.07,North,-999,0.0,0.0,68,0.00,,,0.00,pywws,2013-08-21 05:08:00,
2013-08-20 22:13:00,61.5,51.3,30.07,North,-999,0.0,0.0,69,0.00,,,0.00,pywws,2013-08-21 05:13:00,
2013-08-20 22:18:00,61.5,51.3,30.07,North,-999,0.0,0.0,69,0.00,,,0.00,pywws,2013-08-21 05:18:00,
2013-08-20 22:23:00,61.2,51.3,30.07,North,-999,0.0,0.0,70,0.00,,,0.00,pywws,2013-08-21 05:23:00,
2013-08-20 22:28:00,61.2,51.3,30.07,North,-999,0.0,0.0,70,0.00,,,0.00,pywws,2013-08-21 05:28:00,
2013-08-20 22:33:00,61.0,51.1,30.07,North,-999,0.0,0.0,70,0.00,,,0.00,pywws,2013-08-21 05:33:00,
2013-08-20 22:38:00,61.0,50.7,30.07,North,-999,0.0,0.0,69,0.00,,,0.00,pywws,2013-08-21 05:38:00,
2013-08-20 22:43:00,61.0,50.7,30.07,North,-999,0.0,0.0,69,0.00,,,0.00,pywws,2013-08-21 05:43:00,
2013-08-20 22:48:00,61.0,50.7,30.08,North,-999,0.0,0.0,69,0.00,,,0.00,pywws,2013-08-21 05:48:00,
2013-08-20 22:53:00,61.0,50.3,30.08,North,-999,0.0,0.0,68,0.00,,,0.00,pywws,2013-08-21 05:53:00,
2013-08-20 22:58:00,60.8,50.2,30.08,North,-999,0.0,0.0,68,0.00,,,0.00,pywws,2013-08-21 05:58:00,
2013-08-20 23:03:00,60.8,50.2,30.08,North,-999,0.0,0.0,68,0.00,,,0.00,pywws,2013-08-21 06:03:00,
2013-08-20 23:08:00,60.3,50.4,30.09,North,-999,0.0,0.0,70,0.00,,,0.00,pywws,2013-08-21 06:08:00,
2013-08-20 23:13:00,60.4,51.0,30.08,North,-999,0.0,0.0,71,0.00,,,0.00,pywws,2013-08-21 06:13:00,
2013-08-20 23:18:00,60.4,51.0,30.08,North,-999,0.0,0.0,71,0.00,,,0.00,pywws,2013-08-21 06:18:00,
2013-08-20 23:23:00,60.3,50.8,30.09,North,-999,0.0,0.0,71,0.00,,,0.00,pywws,2013-08-21 06:23:00,
2013-08-20 23:28:00,60.3,50.4,30.08,North,-999,0.0,0.0,70,0.00,,,0.00,pywws,2013-08-21 06:28:00,
2013-08-20 23:33:00,59.9,49.7,30.08,North,-999,0.0,0.0,69,0.00,,,0.00,pywws,2013-08-21 06:33:00,
2013-08-20 23:38:00,59.9,50.1,30.08,North,-999,0.0,0.0,70,0.00,,,0.00,pywws,2013-08-21 06:38:00,
2013-08-20 23:43:00,60.3,50.4,30.08,North,-999,0.0,0.0,70,0.00,,,0.00,pywws,2013-08-21 06:43:00,
2013-08-20 23:48:00,60.8,50.2,30.09,North,-999,0.0,0.0,68,0.00,,,0.00,pywws,2013-08-21 06:48:00,
2013-08-20 23:53:00,60.6,50.4,30.08,North,-999,0.0,0.0,69,0.00,,,0.00,pywws,2013-08-21 06:53:00,
2013-08-20 23:58:00,59.9,50.1,30.08,North,-999,0.0,0.0,70,0.00,,,0.00,pywws,2013-08-21 06:58:00,